sensor_id;sensor_type;location;lat;lon;timestamp;pressure;altitude;pressure_sealevel;temperature;humidity
54194;BME280;40102;50.906;6.972;2022-08-01T00:00:35;100978.84;;;23.80;57.77
54194;BME280;40102;50.906;6.972;2022-08-01T00:03:00;100968.91;;;23.71;57.86
54194;BME280;40102;50.906;6.972;2022-08-01T00:05:26;100970.94;;;23.69;58.08
54194;BME280;40102;50.906;6.972;2022-08-01T00:07:52;100970.78;;;23.70;57.81
54194;BME280;40102;50.906;6.972;2022-08-01T00:10:18;100970.63;;;23.72;58.08
54194;BME280;40102;50.906;6.972;2022-08-01T00:12:44;100964.13;;;23.73;58.25
54194;BME280;40102;50.906;6.972;2022-08-01T00:15:13;100971.63;;;23.71;57.89
54194;BME280;40102;50.906;6.972;2022-08-01T00:17:39;100978.28;;;23.68;58.21
54194;BME280;40102;50.906;6.972;2022-08-01T00:20:08;100974.00;;;23.66;58.16
54194;BME280;40102;50.906;6.972;2022-08-01T00:22:34;100973.63;;;23.61;58.47
54194;BME280;40102;50.906;6.972;2022-08-01T00:25:00;100972.63;;;23.62;58.62
54194;BME280;40102;50.906;6.972;2022-08-01T00:27:26;100969.72;;;23.63;58.31
54194;BME280;40102;50.906;6.972;2022-08-01T00:29:51;100973.16;;;23.65;58.54
54194;BME280;40102;50.906;6.972;2022-08-01T00:32:17;100974.00;;;23.66;58.01
54194;BME280;40102;50.906;6.972;2022-08-01T00:34:43;100968.53;;;23.66;58.23
54194;BME280;40102;50.906;6.972;2022-08-01T00:37:08;100972.81;;;23.68;58.35
54194;BME280;40102;50.906;6.972;2022-08-01T00:39:34;100964.31;;;23.71;57.80
54194;BME280;40102;50.906;6.972;2022-08-01T00:42:00;100973.34;;;23.72;58.04
54194;BME280;40102;50.906;6.972;2022-08-01T00:44:30;100963.28;;;23.72;58.07
54194;BME280;40102;50.906;6.972;2022-08-01T00:46:56;100964.13;;;23.73;57.96
54194;BME280;40102;50.906;6.972;2022-08-01T00:49:21;100977.09;;;23.71;58.19
54194;BME280;40102;50.906;6.972;2022-08-01T00:51:47;100975.38;;;23.70;58.27
54194;BME280;40102;50.906;6.972;2022-08-01T00:54:13;100977.25;;;23.69;58.23
54194;BME280;40102;50.906;6.972;2022-08-01T00:56:38;100980.16;;;23.68;58.39
54194;BME280;40102;50.906;6.972;2022-08-01T00:59:04;100972.28;;;23.65;58.64
54194;BME280;40102;50.906;6.972;2022-08-01T01:01:30;100988.16;;;23.61;59.21
54194;BME280;40102;50.906;6.972;2022-08-01T01:03:56;100981.72;;;23.44;59.71
54194;BME280;40102;50.906;6.972;2022-08-01T01:06:26;100974.50;;;23.35;60.64
54194;BME280;40102;50.906;6.972;2022-08-01T01:11:54;100980.44;;;23.31;61.55
54194;BME280;40102;50.906;6.972;2022-08-01T01:14:42;100983.31;;;23.29;61.48
54194;BME280;40102;50.906;6.972;2022-08-01T01:17:14;100975.84;;;23.31;61.15
54194;BME280;40102;50.906;6.972;2022-08-01T01:19:45;100985.03;;;23.30;61.18
54194;BME280;40102;50.906;6.972;2022-08-01T01:22:17;100982.69;;;23.35;61.16
54194;BME280;40102;50.906;6.972;2022-08-01T01:24:52;100986.06;;;23.29;61.92
54194;BME280;40102;50.906;6.972;2022-08-01T01:30:00;100990.88;;;23.09;62.75
54194;BME280;40102;50.906;6.972;2022-08-01T01:32:38;100982.84;;;23.08;62.85
54194;BME280;40102;50.906;6.972;2022-08-01T01:35:21;100978.41;;;23.07;63.11
54194;BME280;40102;50.906;6.972;2022-08-01T01:37:49;100977.41;;;23.08;62.83
54194;BME280;40102;50.906;6.972;2022-08-01T01:40:17;100984.25;;;23.12;62.84
54194;BME280;40102;50.906;6.972;2022-08-01T01:42:43;100983.22;;;23.13;63.05
54194;BME280;40102;50.906;6.972;2022-08-01T01:45:10;100982.91;;;23.16;62.63
54194;BME280;40102;50.906;6.972;2022-08-01T01:47:38;100988.34;;;23.16;62.75
54194;BME280;40102;50.906;6.972;2022-08-01T01:50:05;100991.94;;;23.16;62.31
54194;BME280;40102;50.906;6.972;2022-08-01T01:52:33;100985.63;;;23.16;62.76
54194;BME280;40102;50.906;6.972;2022-08-01T01:55:01;100988.34;;;23.16;62.61
54194;BME280;40102;50.906;6.972;2022-08-01T01:57:30;100995.69;;;23.15;63.02
54194;BME280;40102;50.906;6.972;2022-08-01T01:59:58;100991.09;;;23.16;62.67
54194;BME280;40102;50.906;6.972;2022-08-01T02:02:25;100988.34;;;23.16;62.24
54194;BME280;40102;50.906;6.972;2022-08-01T02:04:53;100990.06;;;23.17;63.00
54194;BME280;40102;50.906;6.972;2022-08-01T02:07:22;100986.97;;;23.12;63.16
54194;BME280;40102;50.906;6.972;2022-08-01T02:09:49;100987.59;;;23.06;63.56
54194;BME280;40102;50.906;6.972;2022-08-01T02:12:17;100981.78;;;23.01;63.29
54194;BME280;40102;50.906;6.972;2022-08-01T02:14:45;100982.94;;;22.98;63.41
54194;BME280;40102;50.906;6.972;2022-08-01T02:17:15;100975.47;;;23.00;63.39
54194;BME280;40102;50.906;6.972;2022-08-01T02:19:42;100974.94;;;22.97;63.66
54194;BME280;40102;50.906;6.972;2022-08-01T02:22:11;100977.34;;;23.00;63.51
54194;BME280;40102;50.906;6.972;2022-08-01T02:27:30;100968.47;;;22.98;63.24
54194;BME280;40102;50.906;6.972;2022-08-01T02:30:02;100969.31;;;22.98;63.34
54194;BME280;40102;50.906;6.972;2022-08-01T02:32:50;100972.91;;;22.99;63.37
54194;BME280;40102;50.906;6.972;2022-08-01T02:35:31;100980.06;;;23.00;63.54
54194;BME280;40102;50.906;6.972;2022-08-01T02:37:58;100975.31;;;23.02;63.09
54194;BME280;40102;50.906;6.972;2022-08-01T02:40:27;100963.78;;;22.90;63.36
54194;BME280;40102;50.906;6.972;2022-08-01T02:42:54;100974.75;;;22.98;63.26
54194;BME280;40102;50.906;6.972;2022-08-01T02:45:24;100970.16;;;22.99;63.31
54194;BME280;40102;50.906;6.972;2022-08-01T02:47:52;100965.72;;;22.98;63.64
54194;BME280;40102;50.906;6.972;2022-08-01T02:50:20;100964.00;;;22.97;63.42
54194;BME280;40102;50.906;6.972;2022-08-01T02:52:48;100965.19;;;22.94;63.24
54194;BME280;40102;50.906;6.972;2022-08-01T02:55:17;100967.22;;;22.92;63.46
54194;BME280;40102;50.906;6.972;2022-08-01T02:57:43;100970.81;;;22.92;63.59
54194;BME280;40102;50.906;6.972;2022-08-01T03:00:11;100977.28;;;22.91;63.63
54194;BME280;40102;50.906;6.972;2022-08-01T03:02:37;100972.84;;;22.90;64.05
54194;BME280;40102;50.906;6.972;2022-08-01T03:05:07;100972.28;;;22.87;63.73
54194;BME280;40102;50.906;6.972;2022-08-01T03:07:34;100970.41;;;22.87;64.23
54194;BME280;40102;50.906;6.972;2022-08-01T03:10:02;100973.16;;;22.87;63.89
54194;BME280;40102;50.906;6.972;2022-08-01T03:12:29;100980.31;;;22.88;63.82
54194;BME280;40102;50.906;6.972;2022-08-01T03:14:57;100980.78;;;22.84;64.16
54194;BME280;40102;50.906;6.972;2022-08-01T03:17:25;100983.53;;;22.84;64.04
54194;BME280;40102;50.906;6.972;2022-08-01T03:19:52;100980.47;;;22.87;63.96
54194;BME280;40102;50.906;6.972;2022-08-01T03:22:21;100978.13;;;22.92;63.86
54194;BME280;40102;50.906;6.972;2022-08-01T03:24:51;100983.44;;;22.93;63.32
54194;BME280;40102;50.906;6.972;2022-08-01T03:27:19;100980.31;;;22.88;63.70
54194;BME280;40102;50.906;6.972;2022-08-01T03:29:46;100984.22;;;22.86;63.94
54194;BME280;40102;50.906;6.972;2022-08-01T03:32:12;100979.09;;;22.83;64.00
54194;BME280;40102;50.906;6.972;2022-08-01T03:34:39;100982.97;;;22.80;64.11
54194;BME280;40102;50.906;6.972;2022-08-01T03:39:52;100989.56;;;22.78;64.13
54194;BME280;40102;50.906;6.972;2022-08-01T03:42:23;100979.69;;;22.77;64.08
54194;BME280;40102;50.906;6.972;2022-08-01T03:44:55;100978.53;;;22.79;63.95
54194;BME280;40102;50.906;6.972;2022-08-01T03:47:26;100984.53;;;22.83;64.34
54194;BME280;40102;50.906;6.972;2022-08-01T03:49:55;100984.97;;;22.78;64.57
54194;BME280;40102;50.906;6.972;2022-08-01T03:52:23;100987.47;;;22.72;65.11
54194;BME280;40102;50.906;6.972;2022-08-01T03:54:51;100989.66;;;22.68;64.86
54194;BME280;40102;50.906;6.972;2022-08-01T03:57:22;100985.69;;;22.62;65.43
54194;BME280;40102;50.906;6.972;2022-08-01T03:59:48;100976.28;;;22.57;65.38
54194;BME280;40102;50.906;6.972;2022-08-01T04:02:14;100983.13;;;22.61;64.91
54194;BME280;40102;50.906;6.972;2022-08-01T04:04:40;100984.84;;;22.62;64.67
54194;BME280;40102;50.906;6.972;2022-08-01T04:07:21;100982.09;;;22.62;65.04
54194;BME280;40102;50.906;6.972;2022-08-01T04:09:47;100984.69;;;22.63;65.29
54194;BME280;40102;50.906;6.972;2022-08-01T04:12:12;100986.56;;;22.63;65.26
54194;BME280;40102;50.906;6.972;2022-08-01T04:14:38;100979.94;;;22.66;65.04
54194;BME280;40102;50.906;6.972;2022-08-01T04:17:06;100979.59;;;22.69;64.75
54194;BME280;40102;50.906;6.972;2022-08-01T04:19:32;100986.47;;;22.73;64.49
54194;BME280;40102;50.906;6.972;2022-08-01T04:21:57;100983.56;;;22.74;64.73
54194;BME280;40102;50.906;6.972;2022-08-01T04:24:24;100981.00;;;22.73;64.44
54194;BME280;40102;50.906;6.972;2022-08-01T04:26:51;100989.88;;;22.75;64.69
54194;BME280;40102;50.906;6.972;2022-08-01T04:29:19;100993.47;;;22.75;64.81
54194;BME280;40102;50.906;6.972;2022-08-01T04:31:48;100991.59;;;22.76;64.80
54194;BME280;40102;50.906;6.972;2022-08-01T04:34:17;101005.38;;;22.74;64.74
54194;BME280;40102;50.906;6.972;2022-08-01T04:36:47;101003.69;;;22.73;64.63
54194;BME280;40102;50.906;6.972;2022-08-01T04:39:15;101000.09;;;22.73;65.08
54194;BME280;40102;50.906;6.972;2022-08-01T04:41:41;101004.84;;;22.71;64.80
54194;BME280;40102;50.906;6.972;2022-08-01T04:44:08;101004.00;;;22.70;64.98
54194;BME280;40102;50.906;6.972;2022-08-01T04:46:34;101007.72;;;22.69;65.01
54194;BME280;40102;50.906;6.972;2022-08-01T04:49:02;101010.47;;;22.69;65.35
54194;BME280;40102;50.906;6.972;2022-08-01T04:51:30;101013.97;;;22.61;65.64
54194;BME280;40102;50.906;6.972;2022-08-01T04:53:55;101018.78;;;22.50;66.36
54194;BME280;40102;50.906;6.972;2022-08-01T04:56:22;101024.56;;;22.47;66.05
54194;BME280;40102;50.906;6.972;2022-08-01T04:58:48;101029.69;;;22.50;66.04
54194;BME280;40102;50.906;6.972;2022-08-01T05:01:33;101022.38;;;22.50;65.37
54194;BME280;40102;50.906;6.972;2022-08-01T05:03:59;101020.19;;;22.54;65.37
54194;BME280;40102;50.906;6.972;2022-08-01T05:06:24;101033.50;;;22.57;65.20
54194;BME280;40102;50.906;6.972;2022-08-01T05:08:49;101025.19;;;22.58;65.66
54194;BME280;40102;50.906;6.972;2022-08-01T05:11:15;101026.03;;;22.59;65.07
54194;BME280;40102;50.906;6.972;2022-08-01T05:13:40;101030.78;;;22.57;65.67
54194;BME280;40102;50.906;6.972;2022-08-01T05:16:06;101021.22;;;22.53;65.37
54194;BME280;40102;50.906;6.972;2022-08-01T05:18:32;101026.50;;;22.54;65.85
54194;BME280;40102;50.906;6.972;2022-08-01T05:20:57;101029.38;;;22.53;66.02
54194;BME280;40102;50.906;6.972;2022-08-01T05:23:23;101026.66;;;22.53;65.78
54194;BME280;40102;50.906;6.972;2022-08-01T05:25:48;101025.66;;;22.54;65.63
54194;BME280;40102;50.906;6.972;2022-08-01T05:28:14;101029.38;;;22.53;65.86
54194;BME280;40102;50.906;6.972;2022-08-01T05:30:40;101026.66;;;22.53;65.96
54194;BME280;40102;50.906;6.972;2022-08-01T05:33:06;101030.09;;;22.55;65.93
54194;BME280;40102;50.906;6.972;2022-08-01T05:35:31;101032.81;;;22.55;66.00
54194;BME280;40102;50.906;6.972;2022-08-01T05:37:56;101035.53;;;22.55;66.18
54194;BME280;40102;50.906;6.972;2022-08-01T05:40:22;101039.81;;;22.57;66.10
54194;BME280;40102;50.906;6.972;2022-08-01T05:42:47;101037.81;;;22.59;65.90
54194;BME280;40102;50.906;6.972;2022-08-01T05:45:13;101039.66;;;22.59;66.56
54194;BME280;40102;50.906;6.972;2022-08-01T05:47:38;101038.81;;;22.58;66.22
54194;BME280;40102;50.906;6.972;2022-08-01T05:50:07;101045.28;;;22.57;65.91
54194;BME280;40102;50.906;6.972;2022-08-01T05:52:33;101041.69;;;22.57;65.77
54194;BME280;40102;50.906;6.972;2022-08-01T05:54:58;101050.03;;;22.55;66.49
54194;BME280;40102;50.906;6.972;2022-08-01T05:57:24;101049.16;;;22.55;66.88
54194;BME280;40102;50.906;6.972;2022-08-01T05:59:49;101041.31;;;22.52;66.30
54194;BME280;40102;50.906;6.972;2022-08-01T06:02:15;101050.88;;;22.56;66.29
54194;BME280;40102;50.906;6.972;2022-08-01T06:04:40;101053.75;;;22.54;66.43
54194;BME280;40102;50.906;6.972;2022-08-01T06:07:06;101053.22;;;22.51;66.47
54194;BME280;40102;50.906;6.972;2022-08-01T06:09:31;101054.38;;;22.48;67.32
54194;BME280;40102;50.906;6.972;2022-08-01T06:11:57;101043.47;;;22.48;67.63
54194;BME280;40102;50.906;6.972;2022-08-01T06:14:22;101046.19;;;22.48;68.24
54194;BME280;40102;50.906;6.972;2022-08-01T06:16:48;101044.66;;;22.46;68.54
54194;BME280;40102;50.906;6.972;2022-08-01T06:19:13;101048.94;;;22.48;68.83
54194;BME280;40102;50.906;6.972;2022-08-01T06:21:38;101047.91;;;22.49;68.43
54194;BME280;40102;50.906;6.972;2022-08-01T06:24:04;101050.19;;;22.54;68.53
54194;BME280;40102;50.906;6.972;2022-08-01T06:26:29;101050.03;;;22.55;68.11
54194;BME280;40102;50.906;6.972;2022-08-01T06:28:56;101051.59;;;22.58;68.05
54194;BME280;40102;50.906;6.972;2022-08-01T06:31:21;101052.28;;;22.60;67.97
54194;BME280;40102;50.906;6.972;2022-08-01T06:33:47;101051.13;;;22.62;68.07
54194;BME280;40102;50.906;6.972;2022-08-01T06:36:12;101051.97;;;22.63;68.46
54194;BME280;40102;50.906;6.972;2022-08-01T06:38:38;101049.25;;;22.63;68.25
54194;BME280;40102;50.906;6.972;2022-08-01T06:41:03;101044.81;;;22.62;68.19
54194;BME280;40102;50.906;6.972;2022-08-01T06:43:29;101052.84;;;22.63;67.81
54194;BME280;40102;50.906;6.972;2022-08-01T06:45:55;101058.28;;;22.63;68.00
54194;BME280;40102;50.906;6.972;2022-08-01T06:48:21;101051.97;;;22.63;68.13
54194;BME280;40102;50.906;6.972;2022-08-01T06:50:46;101047.53;;;22.62;68.59
54194;BME280;40102;50.906;6.972;2022-08-01T06:53:11;101048.69;;;22.59;68.87
54194;BME280;40102;50.906;6.972;2022-08-01T06:55:37;101048.69;;;22.59;68.87
54194;BME280;40102;50.906;6.972;2022-08-01T06:58:03;101052.44;;;22.58;68.13
54194;BME280;40102;50.906;6.972;2022-08-01T07:00:29;101048.16;;;22.56;68.27
54194;BME280;40102;50.906;6.972;2022-08-01T07:02:55;101058.22;;;22.55;67.63
54194;BME280;40102;50.906;6.972;2022-08-01T07:05:22;101050.88;;;22.56;67.58
54194;BME280;40102;50.906;6.972;2022-08-01T07:07:48;101054.47;;;22.56;67.37
54194;BME280;40102;50.906;6.972;2022-08-01T07:10:13;101055.47;;;22.55;67.60
54194;BME280;40102;50.906;6.972;2022-08-01T07:12:39;101054.47;;;22.56;67.74
54194;BME280;40102;50.906;6.972;2022-08-01T07:15:12;101056.03;;;22.59;67.80
54194;BME280;40102;50.906;6.972;2022-08-01T07:17:39;101050.56;;;22.59;67.64
54194;BME280;40102;50.906;6.972;2022-08-01T07:20:06;101059.59;;;22.59;67.66
54194;BME280;40102;50.906;6.972;2022-08-01T07:22:32;101053.47;;;22.57;67.50
54194;BME280;40102;50.906;6.972;2022-08-01T07:24:57;101050.56;;;22.59;67.70
54194;BME280;40102;50.906;6.972;2022-08-01T07:27:23;101055.00;;;22.60;67.55
54194;BME280;40102;50.906;6.972;2022-08-01T07:29:48;101063.03;;;22.61;66.79
54194;BME280;40102;50.906;6.972;2022-08-01T07:32:13;101063.91;;;22.62;66.32
54194;BME280;40102;50.906;6.972;2022-08-01T07:34:39;101059.44;;;22.61;66.42
54194;BME280;40102;50.906;6.972;2022-08-01T07:37:04;101065.59;;;22.63;66.03
54194;BME280;40102;50.906;6.972;2022-08-01T07:39:30;101060.84;;;22.65;66.15
54194;BME280;40102;50.906;6.972;2022-08-01T07:41:55;101066.31;;;22.65;65.72
54194;BME280;40102;50.906;6.972;2022-08-01T07:44:21;101066.00;;;22.68;65.64
54194;BME280;40102;50.906;6.972;2022-08-01T07:46:46;101066.69;;;22.70;65.65
54194;BME280;40102;50.906;6.972;2022-08-01T07:49:12;101075.75;;;22.71;66.70
54194;BME280;40102;50.906;6.972;2022-08-01T07:51:37;101076.34;;;22.65;66.76
54194;BME280;40102;50.906;6.972;2022-08-01T07:54:03;101080.41;;;22.60;67.07
54194;BME280;40102;50.906;6.972;2022-08-01T07:56:28;101079.00;;;22.56;67.20
54194;BME280;40102;50.906;6.972;2022-08-01T07:58:54;101079.84;;;22.57;66.98
54194;BME280;40102;50.906;6.972;2022-08-01T08:01:19;101080.56;;;22.59;66.47
54194;BME280;40102;50.906;6.972;2022-08-01T08:03:45;101074.81;;;22.62;66.13
54194;BME280;40102;50.906;6.972;2022-08-01T08:06:10;101072.47;;;22.67;65.86
54194;BME280;40102;50.906;6.972;2022-08-01T08:08:35;101072.84;;;22.72;65.86
54194;BME280;40102;50.906;6.972;2022-08-01T08:11:01;101062.66;;;22.74;65.42
54194;BME280;40102;50.906;6.972;2022-08-01T08:13:26;101068.81;;;22.76;65.08
54194;BME280;40102;50.906;6.972;2022-08-01T08:15:52;101072.22;;;22.78;65.18
54194;BME280;40102;50.906;6.972;2022-08-01T08:18:18;101072.97;;;22.80;65.22
54194;BME280;40102;50.906;6.972;2022-08-01T08:20:44;101083.16;;;22.78;65.54
54194;BME280;40102;50.906;6.972;2022-08-01T08:23:10;101080.41;;;22.78;65.79
54194;BME280;40102;50.906;6.972;2022-08-01T08:25:54;101071.09;;;22.81;65.63
54194;BME280;40102;50.906;6.972;2022-08-01T08:28:19;101074.22;;;22.86;65.74
54194;BME280;40102;50.906;6.972;2022-08-01T08:30:45;101082.63;;;22.92;65.48
54194;BME280;40102;50.906;6.972;2022-08-01T08:33:10;101073.44;;;22.93;64.75
54194;BME280;40102;50.906;6.972;2022-08-01T08:35:39;101074.13;;;22.96;64.46
54194;BME280;40102;50.906;6.972;2022-08-01T08:38:04;101080.28;;;22.98;64.25
54194;BME280;40102;50.906;6.972;2022-08-01T08:40:30;101080.28;;;22.98;64.54
54194;BME280;40102;50.906;6.972;2022-08-01T08:42:57;101078.41;;;22.98;64.50
54194;BME280;40102;50.906;6.972;2022-08-01T08:45:25;101082.16;;;22.97;63.95
54194;BME280;40102;50.906;6.972;2022-08-01T08:47:52;101088.63;;;22.96;63.79
54194;BME280;40102;50.906;6.972;2022-08-01T08:50:18;101087.47;;;22.99;63.78
54194;BME280;40102;50.906;6.972;2022-08-01T08:52:45;101102.09;;;22.98;63.77
54194;BME280;40102;50.906;6.972;2022-08-01T08:55:15;101093.53;;;22.92;63.76
54194;BME280;40102;50.906;6.972;2022-08-01T08:57:43;101096.72;;;22.88;63.85
54194;BME280;40102;50.906;6.972;2022-08-01T09:00:10;101100.63;;;22.85;63.80
54194;BME280;40102;50.906;6.972;2022-08-01T09:02:43;101096.88;;;22.86;63.63
54194;BME280;40102;50.906;6.972;2022-08-01T09:05:09;101099.94;;;22.83;63.81
54194;BME280;40102;50.906;6.972;2022-08-01T09:07:35;101099.94;;;22.83;63.57
54194;BME280;40102;50.906;6.972;2022-08-01T09:10:00;101101.66;;;22.84;63.94
54194;BME280;40102;50.906;6.972;2022-08-01T09:12:26;101102.34;;;22.86;64.08
54194;BME280;40102;50.906;6.972;2022-08-01T09:14:51;101106.78;;;22.87;63.66
54194;BME280;40102;50.906;6.972;2022-08-01T09:17:19;101109.50;;;22.87;63.65
54194;BME280;40102;50.906;6.972;2022-08-01T09:19:50;101102.34;;;22.86;64.12
54194;BME280;40102;50.906;6.972;2022-08-01T09:22:22;101101.34;;;22.87;63.82
54194;BME280;40102;50.906;6.972;2022-08-01T09:25:06;101104.38;;;22.84;63.60
54194;BME280;40102;50.906;6.972;2022-08-01T09:27:33;101109.81;;;22.84;63.33
54194;BME280;40102;50.906;6.972;2022-08-01T09:30:12;101105.06;;;22.86;63.53
54194;BME280;40102;50.906;6.972;2022-08-01T09:32:54;101106.47;;;22.90;63.40
54194;BME280;40102;50.906;6.972;2022-08-01T09:35:26;101103.28;;;22.95;63.60
54194;BME280;40102;50.906;6.972;2022-08-01T09:38:11;101104.84;;;22.98;63.21
54194;BME280;40102;50.906;6.972;2022-08-01T09:40:56;101106.94;;;23.04;62.90
54194;BME280;40102;50.906;6.972;2022-08-01T09:43:26;101104.91;;;23.06;62.77
54194;BME280;40102;50.906;6.972;2022-08-01T09:45:51;101119.09;;;23.09;62.29
54194;BME280;40102;50.906;6.972;2022-08-01T09:48:18;101109.75;;;23.12;62.15
54194;BME280;40102;50.906;6.972;2022-08-01T09:50:46;101107.16;;;23.10;62.30
54194;BME280;40102;50.906;6.972;2022-08-01T09:53:12;101110.91;;;23.09;62.56
54194;BME280;40102;50.906;6.972;2022-08-01T09:55:39;101111.47;;;23.13;62.54
54194;BME280;40102;50.906;6.972;2022-08-01T09:58:07;101108.94;;;23.19;62.08
54194;BME280;40102;50.906;6.972;2022-08-01T10:00:33;101105.22;;;23.20;62.00
54194;BME280;40102;50.906;6.972;2022-08-01T10:02:59;101103.41;;;23.29;61.36
54194;BME280;40102;50.906;6.972;2022-08-01T10:05:34;101105.81;;;23.32;61.14
54194;BME280;40102;50.906;6.972;2022-08-01T10:08:02;101101.22;;;23.33;60.79
54194;BME280;40102;50.906;6.972;2022-08-01T10:10:29;101098.88;;;23.38;60.70
54194;BME280;40102;50.906;6.972;2022-08-01T10:13:01;101107.59;;;23.41;60.42
54194;BME280;40102;50.906;6.972;2022-08-01T10:15:27;101095.81;;;23.41;60.38
54194;BME280;40102;50.906;6.972;2022-08-01T10:17:58;101099.41;;;23.41;60.42
54194;BME280;40102;50.906;6.972;2022-08-01T10:20:28;101100.63;;;23.47;60.29
54194;BME280;40102;50.906;6.972;2022-08-01T10:22:55;101097.44;;;23.51;60.27
54194;BME280;40102;50.906;6.972;2022-08-01T10:25:23;101088.22;;;23.52;60.32
54194;BME280;40102;50.906;6.972;2022-08-01T10:27:53;101089.81;;;23.55;59.81
54194;BME280;40102;50.906;6.972;2022-08-01T10:30:22;101093.06;;;23.58;59.43
54194;BME280;40102;50.906;6.972;2022-08-01T10:32:50;101094.47;;;23.63;59.26
54194;BME280;40102;50.906;6.972;2022-08-01T10:35:18;101085.78;;;23.67;58.67
54194;BME280;40102;50.906;6.972;2022-08-01T10:37:45;101092.97;;;23.68;58.94
54194;BME280;40102;50.906;6.972;2022-08-01T10:40:14;101087.34;;;23.70;58.92
54194;BME280;40102;50.906;6.972;2022-08-01T10:42:41;101086.66;;;23.68;58.70
54194;BME280;40102;50.906;6.972;2022-08-01T10:45:10;101085.09;;;23.65;58.63
54194;BME280;40102;50.906;6.972;2022-08-01T10:50:27;101084.63;;;23.70;59.01
54194;BME280;40102;50.906;6.972;2022-08-01T10:53:16;101086.31;;;23.71;58.93
54194;BME280;40102;50.906;6.972;2022-08-01T10:55:59;101085.00;;;23.75;58.57
54194;BME280;40102;50.906;6.972;2022-08-01T11:01:23;101092.31;;;23.74;58.34
54194;BME280;40102;50.906;6.972;2022-08-01T11:04:08;101087.34;;;23.70;58.08
54194;BME280;40102;50.906;6.972;2022-08-01T11:09:02;101086.97;;;23.65;58.60
54194;BME280;40102;50.906;6.972;2022-08-01T11:11:27;101090.88;;;23.62;58.88
54194;BME280;40102;50.906;6.972;2022-08-01T11:16:33;101086.28;;;23.63;59.01
54194;BME280;40102;50.906;6.972;2022-08-01T11:18:59;101080.66;;;23.64;58.72
54194;BME280;40102;50.906;6.972;2022-08-01T11:22:00;101064.66;;;23.69;58.29
54194;BME280;40102;50.906;6.972;2022-08-01T11:27:20;101076.19;;;23.89;56.68
54194;BME280;40102;50.906;6.972;2022-08-01T11:32:46;101068.59;;;24.09;56.86
54194;BME280;40102;50.906;6.972;2022-08-01T11:35:13;101070.13;;;24.11;56.74
54194;BME280;40102;50.906;6.972;2022-08-01T11:37:38;101074.44;;;24.14;57.11
54194;BME280;40102;50.906;6.972;2022-08-01T11:42:48;101069.50;;;24.26;56.96
54194;BME280;40102;50.906;6.972;2022-08-01T11:45:14;101060.47;;;24.25;56.87
54194;BME280;40102;50.906;6.972;2022-08-01T11:47:48;101055.53;;;24.29;56.40
54194;BME280;40102;50.906;6.972;2022-08-01T11:50:34;101052.81;;;24.29;56.21
54194;BME280;40102;50.906;6.972;2022-08-01T11:53:08;101057.94;;;24.32;56.32
54194;BME280;40102;50.906;6.972;2022-08-01T11:55:34;101057.94;;;24.32;55.63
54194;BME280;40102;50.906;6.972;2022-08-01T11:58:02;101068.19;;;24.30;55.39
54194;BME280;40102;50.906;6.972;2022-08-01T12:00:28;101063.91;;;24.27;55.87
54194;BME280;40102;50.906;6.972;2022-08-01T12:03:06;101062.66;;;24.21;56.22
54194;BME280;40102;50.906;6.972;2022-08-01T12:05:34;101065.03;;;24.16;56.25
54194;BME280;40102;50.906;6.972;2022-08-01T12:08:01;101068.59;;;24.09;56.01
54194;BME280;40102;50.906;6.972;2022-08-01T12:10:29;101066.88;;;24.08;55.38
54194;BME280;40102;50.906;6.972;2022-08-01T12:13:04;101068.78;;;24.15;53.95
54194;BME280;40102;50.906;6.972;2022-08-01T12:15:34;101052.25;;;24.25;53.71
54194;BME280;40102;50.906;6.972;2022-08-01T12:18:01;101061.22;;;24.43;53.16
54194;BME280;40102;50.906;6.972;2022-08-01T12:20:35;101055.63;;;24.53;52.83
54194;BME280;40102;50.906;6.972;2022-08-01T12:23:04;101058.03;;;24.64;52.67
54194;BME280;40102;50.906;6.972;2022-08-01T12:25:33;101059.06;;;24.71;52.56
54194;BME280;40102;50.906;6.972;2022-08-01T12:28:04;101057.69;;;24.67;52.45
54194;BME280;40102;50.906;6.972;2022-08-01T12:30:30;101065.03;;;24.59;52.65
54194;BME280;40102;50.906;6.972;2022-08-01T12:32:57;101070.63;;;24.49;53.57
54194;BME280;40102;50.906;6.972;2022-08-01T12:35:27;101070.94;;;24.38;54.46
54194;BME280;40102;50.906;6.972;2022-08-01T12:37:59;101083.91;;;24.28;55.01
54194;BME280;40102;50.906;6.972;2022-08-01T12:40:27;101072.75;;;24.21;54.96
54194;BME280;40102;50.906;6.972;2022-08-01T12:43:01;101074.63;;;24.20;55.11
54194;BME280;40102;50.906;6.972;2022-08-01T12:45:30;101078.53;;;24.18;55.05
54194;BME280;40102;50.906;6.972;2022-08-01T12:47:57;101065.72;;;24.18;54.77
54194;BME280;40102;50.906;6.972;2022-08-01T12:50:26;101068.47;;;24.18;54.80
54194;BME280;40102;50.906;6.972;2022-08-01T12:52:53;101069.31;;;24.19;54.28
54194;BME280;40102;50.906;6.972;2022-08-01T12:55:20;101066.78;;;24.26;53.75
54194;BME280;40102;50.906;6.972;2022-08-01T12:57:48;101071.63;;;24.32;53.03
54194;BME280;40102;50.906;6.972;2022-08-01T13:00:26;101066.50;;;24.37;52.40
54194;BME280;40102;50.906;6.972;2022-08-01T13:03:05;101064.09;;;24.34;52.68
54194;BME280;40102;50.906;6.972;2022-08-01T13:05:47;101061.69;;;24.31;51.96
54194;BME280;40102;50.906;6.972;2022-08-01T13:08:18;101077.78;;;24.34;52.39
54194;BME280;40102;50.906;6.972;2022-08-01T13:10:45;101062.91;;;24.36;52.40
54194;BME280;40102;50.906;6.972;2022-08-01T13:13:12;101063.09;;;24.43;51.79
54194;BME280;40102;50.906;6.972;2022-08-01T13:15:39;101058.16;;;24.46;52.20
54194;BME280;40102;50.906;6.972;2022-08-01T13:18:28;101065.16;;;24.49;52.04
54194;BME280;40102;50.906;6.972;2022-08-01T13:21:21;101062.78;;;24.54;51.74
54194;BME280;40102;50.906;6.972;2022-08-01T13:24:09;101066.38;;;24.54;51.66
54194;BME280;40102;50.906;6.972;2022-08-01T13:29:07;101061.41;;;24.50;52.29